createdAt,value
2022-09-06T00:00:59.899Z,16.00
2022-09-06T00:03:29.341Z,15.90
2022-09-06T00:05:55.897Z,15.90
2022-09-06T00:08:22.524Z,15.90
2022-09-06T00:11:00.851Z,15.90
2022-09-06T00:13:28.348Z,15.90
2022-09-06T00:15:55.016Z,15.80
2022-09-06T00:18:22.069Z,15.80
2022-09-06T00:20:48.660Z,16.00
2022-09-06T00:23:15.272Z,15.90
2022-09-06T00:25:41.871Z,15.80
2022-09-06T00:28:08.472Z,15.90
2022-09-06T00:30:35.086Z,15.90
2022-09-06T00:33:01.696Z,15.90
2022-09-06T00:35:28.960Z,15.90
2022-09-06T00:38:00.610Z,15.70
2022-09-06T00:40:29.431Z,15.70
2022-09-06T00:42:57.457Z,15.70
2022-09-06T00:45:27.403Z,15.70
2022-09-06T00:47:54.521Z,15.70
2022-09-06T00:50:21.222Z,15.60
2022-09-06T00:52:51.539Z,15.60
2022-09-06T00:55:19.435Z,15.60
2022-09-06T00:57:50.839Z,15.60
2022-09-06T01:00:18.727Z,15.60
2022-09-06T01:02:46.030Z,15.60
2022-09-06T01:05:14.094Z,15.60
2022-09-06T01:08:16.919Z,15.60
2022-09-06T01:11:02.688Z,15.50
2022-09-06T01:14:07.123Z,15.50
2022-09-06T01:16:57.029Z,15.50
2022-09-06T01:19:45.768Z,15.50
2022-09-06T01:22:20.361Z,15.40
2022-09-06T01:25:10.213Z,15.40
2022-09-06T01:28:15.565Z,15.40
2022-09-06T01:30:52.222Z,15.40
2022-09-06T01:33:28.507Z,15.40
2022-09-06T01:36:02.448Z,15.30
2022-09-06T01:38:29.693Z,15.40
2022-09-06T01:40:56.331Z,15.40
2022-09-06T01:43:33.217Z,15.30
2022-09-06T01:46:22.476Z,15.30
2022-09-06T01:49:04.235Z,15.30
2022-09-06T01:52:06.643Z,15.30
2022-09-06T01:55:08.836Z,15.30
2022-09-06T01:57:51.650Z,15.20
2022-09-06T02:00:20.247Z,15.20
2022-09-06T02:03:12.985Z,15.20
2022-09-06T02:05:46.232Z,15.20
2022-09-06T02:08:23.193Z,15.20
2022-09-06T02:13:30.130Z,15.10
2022-09-06T02:16:02.179Z,15.10
2022-09-06T02:18:33.802Z,15.10
2022-09-06T02:26:04.919Z,15.00
2022-09-06T02:28:31.759Z,15.00
2022-09-06T02:31:02.537Z,15.00
2022-09-06T02:33:32.348Z,15.00
2022-09-06T02:36:05.685Z,15.00
2022-09-06T02:38:34.788Z,15.00
2022-09-06T02:41:01.982Z,15.00
2022-09-06T02:43:28.595Z,14.90
2022-09-06T02:45:55.285Z,15.00
2022-09-06T02:48:22.442Z,15.00
2022-09-06T02:50:49.079Z,15.00
2022-09-06T02:53:16.096Z,15.10
2022-09-06T02:55:43.029Z,15.10
2022-09-06T02:58:11.735Z,15.00
2022-09-06T03:00:40.727Z,17.00
2022-09-06T03:03:08.247Z,15.00
2022-09-06T03:05:34.937Z,15.00
2022-09-06T03:08:01.866Z,14.90
2022-09-06T03:32:34.612Z,14.70
2022-09-06T03:37:28.808Z,15.20
2022-09-06T03:39:55.529Z,14.80
2022-09-06T03:42:22.382Z,14.80
2022-09-06T03:44:51.059Z,14.60
2022-09-06T03:47:19.592Z,14.70
2022-09-06T03:49:46.814Z,14.70
2022-09-06T03:52:13.892Z,14.70
2022-09-06T03:54:40.773Z,14.70
2022-09-06T04:04:28.954Z,14.50
2022-09-06T04:06:55.584Z,14.60
2022-09-06T04:14:16.286Z,14.50
2022-09-06T04:16:42.981Z,14.60
2022-09-06T04:19:09.578Z,14.20
2022-09-06T04:21:36.177Z,14.60
2022-09-06T04:31:24.547Z,14.40
2022-09-06T04:38:45.680Z,14.40
2022-09-06T04:46:26.724Z,14.30
2022-09-06T04:48:55.041Z,14.40
2022-09-06T04:51:22.816Z,14.70
2022-09-06T04:53:49.942Z,14.40
2022-09-06T04:56:19.733Z,14.40
2022-09-06T05:01:14.279Z,14.40
2022-09-06T05:03:40.956Z,14.40
2022-09-06T05:06:08.844Z,14.20
2022-09-06T05:08:39.307Z,14.20
2022-09-06T05:11:07.428Z,14.20
2022-09-06T05:16:03.025Z,14.40
2022-09-06T05:18:29.983Z,14.40
2022-09-06T05:20:56.788Z,14.30
2022-09-06T05:23:24.719Z,14.40
2022-09-06T05:28:19.184Z,14.30
2022-09-06T05:30:45.816Z,14.40
2022-09-06T05:33:14.065Z,14.40
2022-09-06T05:35:40.752Z,14.40
2022-09-06T05:38:07.363Z,14.40
2022-09-06T05:40:33.945Z,14.40
2022-09-06T05:43:00.543Z,14.40
2022-09-06T05:45:27.178Z,14.50
2022-09-06T05:47:54.040Z,14.50
2022-09-06T05:50:20.604Z,14.40
2022-09-06T05:52:47.382Z,14.50
2022-09-06T05:55:14.216Z,14.50
2022-09-06T05:57:40.849Z,14.50
2022-09-06T06:00:08.066Z,14.50
2022-09-06T06:02:34.685Z,14.60
2022-09-06T06:05:01.903Z,14.60
2022-09-06T06:07:28.507Z,14.60
2022-09-06T06:09:55.079Z,14.60
2022-09-06T06:12:21.650Z,14.60
2022-09-06T06:14:48.231Z,14.60
2022-09-06T06:17:14.852Z,14.70
2022-09-06T06:19:41.476Z,14.70
2022-09-06T06:22:08.095Z,14.70
2022-09-06T06:24:35.092Z,14.70
2022-09-06T06:27:01.677Z,14.70
2022-09-06T06:29:28.287Z,14.80
2022-09-06T06:31:54.909Z,14.80
2022-09-06T06:34:21.947Z,14.90
2022-09-06T06:36:48.607Z,14.80
2022-09-06T06:39:15.333Z,14.90
2022-09-06T06:41:41.955Z,14.90
2022-09-06T06:44:08.513Z,15.00
2022-09-06T06:46:37.812Z,15.00
2022-09-06T06:49:05.094Z,15.00
2022-09-06T06:51:35.993Z,15.00
2022-09-06T06:54:03.190Z,15.10
2022-09-06T06:56:40.923Z,15.20
2022-09-06T06:59:08.172Z,15.30
2022-09-06T07:01:36.025Z,15.30
2022-09-06T07:04:03.327Z,15.30
2022-09-06T07:09:18.622Z,15.40
2022-09-06T07:11:45.899Z,15.50
2022-09-06T07:14:12.560Z,15.50
2022-09-06T07:16:39.308Z,15.50
2022-09-06T07:26:37.564Z,15.70
2022-09-06T07:36:47.322Z,15.80
2022-09-06T07:39:14.136Z,15.90
2022-09-06T07:41:40.780Z,15.80
2022-09-06T07:44:07.382Z,16.00
2022-09-06T07:46:34.370Z,16.00
2022-09-06T07:49:03.476Z,16.00
2022-09-06T07:51:30.085Z,16.00
2022-09-06T07:56:43.347Z,16.10
2022-09-06T08:01:38.963Z,16.20
2022-09-06T08:04:11.128Z,16.20
2022-09-06T08:09:25.780Z,16.30
2022-09-06T08:11:52.722Z,16.40
2022-09-06T08:14:20.254Z,16.40
2022-09-06T08:16:47.032Z,16.50
2022-09-06T08:24:10.168Z,16.50
2022-09-06T08:26:42.977Z,16.80
2022-09-06T08:29:10.824Z,16.80
2022-09-06T08:31:42.092Z,16.80
2022-09-06T08:36:36.361Z,16.90
2022-09-06T08:39:05.947Z,17.00
2022-09-06T08:42:06.786Z,17.10
2022-09-06T08:44:58.496Z,17.10
2022-09-06T08:47:25.524Z,17.00
2022-09-06T08:49:56.225Z,17.20
2022-09-06T08:53:13.232Z,17.10
2022-09-06T08:55:41.428Z,17.20
2022-09-06T08:58:29.142Z,17.10
2022-09-06T09:01:07.976Z,17.20
2022-09-06T09:03:39.882Z,17.10
2022-09-06T09:06:10.006Z,17.20
2022-09-06T09:08:46.350Z,17.10
2022-09-06T09:11:18.624Z,17.10
2022-09-06T09:13:56.047Z,17.10
2022-09-06T09:16:23.532Z,17.10
2022-09-06T09:18:53.038Z,17.10
2022-09-06T09:21:30.142Z,17.20
2022-09-06T09:24:06.948Z,17.10
2022-09-06T09:26:45.399Z,17.10
2022-09-06T09:29:14.022Z,17.20
2022-09-06T09:31:53.366Z,17.10
2022-09-06T09:34:33.716Z,17.20
2022-09-06T09:40:25.904Z,17.20
2022-09-06T09:42:55.047Z,17.20
2022-09-06T09:45:30.254Z,17.20
2022-09-06T09:47:57.338Z,17.30
2022-09-06T09:50:33.431Z,17.30
2022-09-06T09:55:41.679Z,17.40
2022-09-06T09:58:36.694Z,17.40
2022-09-06T10:11:57.053Z,17.50
2022-09-06T10:14:28.334Z,17.60
2022-09-06T10:16:55.759Z,17.60
2022-09-06T10:19:40.899Z,17.60
2022-09-06T10:28:11.066Z,17.70
2022-09-06T10:30:46.506Z,17.80
2022-09-06T10:33:18.917Z,17.80
2022-09-06T10:35:45.488Z,17.80
2022-09-06T10:38:21.120Z,17.80
2022-09-06T10:41:08.452Z,18.10
2022-09-06T10:44:04.065Z,18.10
2022-09-06T10:46:35.147Z,18.20
2022-09-06T10:49:01.900Z,18.40
2022-09-06T10:51:38.710Z,18.30
2022-09-06T10:54:17.316Z,18.40
2022-09-06T10:57:00.596Z,18.50
2022-09-06T10:59:51.835Z,18.50
2022-09-06T11:02:33.828Z,18.50
2022-09-06T11:13:22.001Z,18.70
2022-09-06T11:16:06.222Z,18.90
2022-09-06T11:18:43.808Z,18.80
2022-09-06T11:21:41.980Z,18.80
2022-09-06T11:24:27.085Z,18.90
2022-09-06T11:27:22.623Z,18.90
2022-09-06T11:29:56.410Z,19.00
2022-09-06T11:32:48.790Z,19.10
2022-09-06T11:35:42.483Z,19.10
2022-09-06T11:40:46.213Z,19.10
2022-09-06T11:43:36.027Z,19.30
2022-09-06T11:46:02.647Z,19.30
2022-09-06T11:48:34.421Z,19.30
2022-09-06T11:51:10.580Z,19.40
2022-09-06T11:53:49.101Z,19.30
2022-09-06T11:56:25.028Z,19.40
2022-09-06T11:58:56.249Z,19.40
2022-09-06T12:01:22.780Z,19.30
2022-09-06T12:04:06.207Z,19.40
2022-09-06T12:07:09.488Z,19.30
2022-09-06T12:09:42.612Z,19.30
2022-09-06T12:12:13.480Z,19.30
2022-09-06T12:14:46.971Z,19.40
2022-09-06T12:17:13.937Z,19.40
2022-09-06T12:20:08.693Z,19.60
2022-09-06T12:22:41.186Z,19.60
2022-09-06T12:25:41.073Z,19.60
2022-09-06T12:28:20.705Z,19.80
2022-09-06T12:30:48.341Z,19.70
2022-09-06T12:33:31.561Z,19.90
2022-09-06T12:36:15.704Z,19.90
2022-09-06T12:39:14.735Z,19.90
2022-09-06T12:41:47.400Z,20.00
2022-09-06T12:44:15.847Z,20.00
2022-09-06T12:46:48.635Z,19.90
2022-09-06T12:49:19.487Z,20.00
2022-09-06T12:51:46.399Z,19.80
2022-09-06T12:54:24.711Z,19.80
2022-09-06T12:56:52.180Z,19.70
2022-09-06T12:59:25.082Z,19.70
2022-09-06T13:02:13.716Z,19.70
2022-09-06T13:04:44.088Z,19.70
2022-09-06T13:07:15.048Z,19.70
2022-09-06T13:09:44.349Z,19.70
2022-09-06T13:12:26.286Z,19.60
2022-09-06T13:14:58.070Z,19.60
2022-09-06T13:17:26.673Z,19.60
2022-09-06T13:19:53.950Z,19.60
2022-09-06T13:22:45.035Z,19.50
2022-09-06T13:25:47.952Z,19.60
2022-09-06T13:28:28.784Z,19.60
2022-09-06T13:31:17.230Z,19.50
2022-09-06T13:33:45.114Z,19.60
2022-09-06T13:36:11.760Z,19.50
2022-09-06T13:38:40.900Z,19.50
2022-09-06T13:41:27.457Z,19.40
2022-09-06T13:44:04.252Z,19.30
2022-09-06T13:46:36.335Z,19.30
2022-09-06T13:49:03.756Z,19.30
2022-09-06T13:51:30.577Z,19.20
2022-09-06T13:54:11.384Z,19.20
2022-09-06T13:56:39.248Z,19.20
2022-09-06T13:59:07.216Z,19.20
2022-09-06T14:01:34.054Z,19.20
2022-09-06T14:04:00.788Z,19.20
2022-09-06T14:06:27.797Z,19.20
2022-09-06T14:09:06.803Z,19.20
2022-09-06T14:11:33.860Z,19.30
2022-09-06T14:14:00.616Z,19.20
2022-09-06T14:16:27.212Z,19.20
2022-09-06T14:18:54.042Z,19.20
2022-09-06T14:21:20.776Z,19.20
2022-09-06T14:23:52.144Z,19.20
2022-09-06T14:26:20.954Z,19.20
2022-09-06T14:28:47.787Z,19.20
2022-09-06T14:31:17.841Z,19.20
2022-09-06T14:33:44.507Z,19.20
2022-09-06T14:36:14.619Z,19.20
2022-09-06T14:38:42.743Z,19.20
2022-09-06T14:41:10.137Z,19.30
2022-09-06T14:43:37.929Z,19.20
2022-09-06T14:46:10.278Z,19.20
2022-09-06T14:48:41.526Z,19.20
2022-09-06T14:51:22.003Z,19.20
2022-09-06T14:53:51.992Z,19.20
2022-09-06T14:56:19.611Z,19.20
2022-09-06T14:58:46.784Z,19.20
2022-09-06T15:01:20.316Z,19.20
2022-09-06T15:03:52.452Z,19.20
2022-09-06T15:06:20.776Z,19.20
2022-09-06T15:08:48.479Z,19.30
2022-09-06T15:11:27.324Z,19.40
2022-09-06T15:13:53.872Z,19.40
2022-09-06T15:16:20.439Z,19.50
2022-09-06T15:18:46.985Z,19.70
2022-09-06T15:21:16.227Z,19.70
2022-09-06T15:23:44.063Z,19.90
2022-09-06T15:26:12.266Z,20.00
2022-09-06T15:28:40.390Z,20.10
2022-09-06T15:31:08.319Z,20.20
2022-09-06T15:33:37.080Z,20.40
2022-09-06T15:36:07.876Z,20.40
2022-09-06T15:38:35.813Z,20.50
2022-09-06T15:41:11.433Z,20.50
2022-09-06T15:43:42.002Z,20.80
2022-09-06T15:46:09.614Z,20.70
2022-09-06T15:48:45.603Z,20.70
2022-09-06T15:51:14.785Z,20.70
2022-09-06T15:53:41.624Z,20.70
2022-09-06T15:56:09.884Z,20.70
2022-09-06T15:58:36.472Z,20.70
2022-09-06T16:01:09.362Z,20.60
2022-09-06T16:03:42.100Z,20.60
2022-09-06T16:06:27.884Z,20.50
2022-09-06T16:09:14.249Z,20.40
2022-09-06T16:11:41.689Z,20.30
2022-09-06T16:14:11.248Z,20.30
2022-09-06T16:16:39.662Z,20.30
2022-09-06T16:19:07.032Z,20.30
2022-09-06T16:21:36.837Z,20.20
2022-09-06T16:24:08.796Z,20.20
2022-09-06T16:26:37.944Z,20.10
2022-09-06T16:29:06.748Z,20.10
2022-09-06T16:31:39.112Z,20.00
2022-09-06T16:34:07.672Z,20.00
2022-09-06T16:36:34.548Z,19.90
2022-09-06T16:39:01.681Z,19.90
2022-09-06T16:41:36.274Z,19.90
2022-09-06T16:44:02.956Z,19.80
2022-09-06T16:46:29.593Z,19.80
2022-09-06T16:49:02.981Z,19.80
2022-09-06T16:51:31.237Z,19.70
2022-09-06T16:53:59.389Z,19.60
2022-09-06T16:56:28.415Z,19.60
2022-09-06T16:58:58.546Z,19.60
2022-09-06T17:01:27.310Z,19.50
2022-09-06T17:03:54.624Z,19.40
2022-09-06T17:06:22.954Z,19.40
2022-09-06T17:08:50.844Z,19.40
2022-09-06T17:11:20.261Z,19.30
2022-09-06T17:13:49.407Z,19.30
2022-09-06T17:16:35.188Z,19.30
2022-09-06T17:19:02.263Z,19.20
2022-09-06T17:21:29.939Z,19.20
2022-09-06T17:24:01.730Z,19.10
2022-09-06T17:26:28.605Z,19.10
2022-09-06T17:28:57.075Z,19.00
2022-09-06T17:31:25.967Z,19.00
2022-09-06T17:33:53.145Z,19.00
2022-09-06T17:36:23.429Z,18.90
2022-09-06T17:38:53.279Z,18.90
2022-09-06T17:41:38.661Z,18.80
2022-09-06T17:44:11.060Z,18.70
2022-09-06T17:46:47.658Z,18.70
2022-09-06T17:49:18.892Z,18.60
2022-09-06T17:51:46.475Z,18.60
2022-09-06T17:54:14.124Z,18.50
2022-09-06T17:56:40.828Z,18.50
2022-09-06T17:59:13.411Z,18.40
2022-09-06T18:01:41.562Z,18.40
2022-09-06T18:04:09.852Z,18.30
2022-09-06T18:06:40.723Z,18.20
2022-09-06T18:09:14.651Z,18.20
2022-09-06T18:11:44.425Z,18.10
2022-09-06T18:14:12.831Z,18.10
2022-09-06T18:16:40.382Z,18.00
2022-09-06T18:19:08.616Z,18.00
2022-09-06T18:21:37.893Z,17.90
2022-09-06T18:24:05.907Z,17.90
2022-09-06T18:26:32.925Z,17.80
2022-09-06T18:28:59.548Z,17.70
2022-09-06T18:31:27.441Z,17.70
2022-09-06T18:33:59.704Z,17.60
2022-09-06T18:36:31.723Z,17.60
2022-09-06T18:39:02.400Z,17.60
2022-09-06T18:41:47.598Z,17.50
2022-09-06T18:44:14.397Z,17.50
2022-09-06T18:46:40.939Z,17.40
2022-09-06T18:49:07.996Z,17.50
2022-09-06T18:51:39.552Z,17.50
2022-09-06T18:54:06.835Z,17.30
2022-09-06T18:56:33.492Z,17.30
2022-09-06T18:59:01.332Z,17.20
2022-09-06T19:01:31.954Z,17.20
2022-09-06T19:04:00.203Z,17.10
2022-09-06T19:06:29.603Z,17.10
2022-09-06T19:09:01.314Z,17.00
2022-09-06T19:11:28.565Z,17.00
2022-09-06T19:13:56.689Z,17.00
2022-09-06T19:16:25.267Z,16.90
2022-09-06T19:18:55.148Z,16.90
2022-09-06T19:21:24.662Z,16.90
2022-09-06T19:24:03.570Z,16.90
2022-09-06T19:26:33.208Z,16.80
2022-09-06T19:29:03.042Z,16.80
2022-09-06T19:31:33.143Z,16.80
2022-09-06T19:34:00.486Z,16.80
2022-09-06T19:36:28.789Z,16.80
2022-09-06T19:41:32.042Z,16.60
2022-09-06T19:44:00.456Z,16.60
2022-09-06T19:46:29.711Z,16.60
2022-09-06T19:48:56.473Z,16.60
2022-09-06T19:51:24.436Z,16.50
2022-09-06T19:53:54.201Z,16.50
2022-09-06T19:56:24.821Z,16.50
2022-09-06T19:58:57.168Z,16.40
2022-09-06T20:01:32.660Z,16.40
2022-09-06T20:04:02.625Z,16.40
2022-09-06T20:06:29.832Z,16.30
2022-09-06T20:08:58.148Z,16.30
2022-09-06T20:11:27.345Z,16.20
2022-09-06T20:13:54.054Z,16.20
2022-09-06T20:16:21.226Z,16.20
2022-09-06T20:18:48.400Z,16.20
2022-09-06T20:21:15.408Z,16.20
2022-09-06T20:23:44.073Z,16.10
2022-09-06T20:26:15.088Z,16.10
2022-09-06T20:28:42.151Z,16.10
2022-09-06T20:31:13.036Z,16.00
2022-09-06T20:33:39.727Z,16.00
2022-09-06T20:36:08.677Z,16.00
2022-09-06T20:38:40.671Z,16.00
2022-09-06T20:41:16.304Z,16.00
2022-09-06T20:43:43.262Z,15.90
2022-09-06T20:46:11.164Z,15.90
2022-09-06T20:48:43.649Z,15.90
2022-09-06T20:51:15.449Z,15.90
2022-09-06T20:53:42.703Z,15.80
2022-09-06T20:56:18.294Z,15.80
2022-09-06T20:58:49.761Z,15.80
2022-09-06T21:01:22.739Z,15.70
2022-09-06T21:03:52.214Z,15.70
2022-09-06T21:06:20.317Z,15.70
2022-09-06T21:08:48.046Z,15.70
2022-09-06T21:11:14.670Z,15.70
2022-09-06T21:13:41.513Z,15.70
2022-09-06T21:16:08.859Z,15.60
2022-09-06T21:18:36.253Z,15.70
2022-09-06T21:21:05.929Z,15.60
2022-09-06T21:23:35.335Z,15.60
2022-09-06T21:26:04.595Z,15.60
2022-09-06T21:28:34.224Z,15.60
2022-09-06T21:31:09.082Z,15.60
2022-09-06T21:33:37.463Z,15.50
2022-09-06T21:36:07.038Z,15.50
2022-09-06T21:38:39.217Z,15.50
2022-09-06T21:41:07.929Z,15.50
2022-09-06T21:43:35.239Z,15.50
2022-09-06T21:46:11.007Z,15.60
2022-09-06T21:48:42.701Z,15.40
2022-09-06T21:51:14.135Z,15.30
2022-09-06T21:53:42.408Z,15.50
2022-09-06T21:56:09.909Z,15.40
2022-09-06T21:58:36.708Z,15.30
2022-09-06T22:01:04.785Z,15.30
2022-09-06T22:03:33.587Z,15.30
2022-09-06T22:06:11.371Z,15.30
2022-09-06T22:08:38.648Z,15.30
2022-09-06T22:11:17.444Z,15.30
2022-09-06T22:13:44.967Z,15.30
2022-09-06T22:16:12.609Z,15.30
2022-09-06T22:18:39.790Z,15.20
2022-09-06T22:21:12.350Z,15.20
2022-09-06T22:23:39.460Z,15.20
2022-09-06T22:26:11.668Z,15.20
2022-09-06T22:28:38.751Z,15.20
2022-09-06T22:31:05.985Z,15.20
2022-09-06T22:33:33.335Z,15.30
2022-09-06T22:36:00.264Z,15.20
2022-09-06T22:38:28.351Z,15.30
2022-09-06T22:40:55.091Z,15.30
2022-09-06T22:43:21.643Z,16.10
2022-09-06T22:48:19.319Z,15.10
2022-09-06T22:50:46.247Z,15.10
2022-09-06T22:53:12.846Z,15.10
2022-09-06T22:55:39.505Z,15.10
2022-09-06T22:58:06.137Z,15.10
2022-09-06T23:00:35.943Z,15.00
2022-09-06T23:03:02.610Z,15.00
2022-09-06T23:05:31.269Z,15.00
2022-09-06T23:08:00.161Z,15.00
2022-09-06T23:10:27.393Z,15.00
2022-09-06T23:12:54.460Z,15.00
2022-09-06T23:15:21.348Z,15.00
2022-09-06T23:20:15.076Z,15.00
2022-09-06T23:22:42.056Z,14.90
2022-09-06T23:25:09.296Z,15.50
2022-09-06T23:27:36.101Z,15.00
2022-09-06T23:30:03.607Z,15.00
2022-09-06T23:34:59.324Z,14.90
2022-09-06T23:39:53.283Z,14.90
2022-09-06T23:42:20.968Z,15.00
2022-09-06T23:49:41.804Z,14.80
2022-09-06T23:52:08.415Z,14.90
